createdAt,value
2023-01-19T00:00:12.484Z,34.20
2023-01-19T00:02:40.608Z,33.17
2023-01-19T00:05:09.183Z,34.65
2023-01-19T00:07:37.343Z,33.67
2023-01-19T00:10:06.391Z,34.17
2023-01-19T00:12:34.589Z,31.70
2023-01-19T00:15:05.087Z,33.22
2023-01-19T00:17:33.238Z,32.25
2023-01-19T00:20:01.344Z,32.08
2023-01-19T00:22:29.547Z,33.75
2023-01-19T00:24:57.669Z,30.85
2023-01-19T00:27:25.983Z,31.45
2023-01-19T00:29:54.091Z,31.77
2023-01-19T00:32:23.635Z,32.20
2023-01-19T00:34:52.400Z,29.35
2023-01-19T00:37:20.758Z,30.58
2023-01-19T00:39:48.826Z,31.85
2023-01-19T00:42:34.453Z,30.30
2023-01-19T00:45:02.635Z,30.02
2023-01-19T00:47:32.367Z,29.27
2023-01-19T00:50:00.458Z,28.50
2023-01-19T00:52:28.618Z,27.92
2023-01-19T00:54:56.715Z,29.05
2023-01-19T00:57:24.871Z,27.63
2023-01-19T00:59:53.025Z,27.17
2023-01-19T01:02:21.329Z,28.77
2023-01-19T01:04:54.823Z,26.60
2023-01-19T01:07:23.086Z,26.88
2023-01-19T01:09:51.589Z,27.05
2023-01-19T01:12:19.701Z,25.48
2023-01-19T01:14:47.846Z,26.08
2023-01-19T01:17:16.686Z,25.55
2023-01-19T01:19:44.858Z,23.40
2023-01-19T01:22:14.330Z,26.20
2023-01-19T01:24:42.580Z,24.45
2023-01-19T01:27:10.676Z,24.05
2023-01-19T01:29:41.161Z,25.33
2023-01-19T01:32:09.951Z,28.50
2023-01-19T01:34:38.022Z,24.35
2023-01-19T01:37:08.383Z,24.02
2023-01-19T01:39:37.895Z,24.02
2023-01-19T01:42:10.698Z,24.30
2023-01-19T01:44:50.030Z,24.13
2023-01-19T01:47:28.376Z,23.25
2023-01-19T01:49:59.551Z,24.85
2023-01-19T01:52:27.890Z,22.90
2023-01-19T01:54:57.479Z,22.20
2023-01-19T01:57:28.166Z,23.63
2023-01-19T01:59:56.586Z,22.00
2023-01-19T02:02:43.707Z,22.88
2023-01-19T02:05:12.542Z,22.33
2023-01-19T02:08:02.441Z,22.23
2023-01-19T02:10:49.442Z,21.30
2023-01-19T02:13:23.459Z,20.15
2023-01-19T02:15:52.828Z,20.67
2023-01-19T02:18:21.337Z,21.50
2023-01-19T02:20:54.907Z,21.67
2023-01-19T02:23:34.260Z,21.08
2023-01-19T02:26:02.389Z,20.60
2023-01-19T02:28:30.510Z,19.50
2023-01-19T02:30:58.771Z,20.27
2023-01-19T02:33:27.158Z,20.70
2023-01-19T02:35:55.319Z,20.17
2023-01-19T02:38:23.915Z,18.98
2023-01-19T02:40:53.476Z,18.95
2023-01-19T02:43:21.553Z,17.40
2023-01-19T02:45:50.129Z,16.77
2023-01-19T02:48:19.168Z,16.92
2023-01-19T02:50:49.926Z,17.17
2023-01-19T02:53:33.150Z,18.80
2023-01-19T02:56:06.899Z,18.00
2023-01-19T02:58:35.968Z,18.38
2023-01-19T03:01:09.015Z,16.50
2023-01-19T03:03:40.482Z,16.33
2023-01-19T03:06:11.112Z,16.63
2023-01-19T03:08:44.360Z,16.10
2023-01-19T03:11:14.106Z,18.23
2023-01-19T03:13:45.339Z,16.92
2023-01-19T03:16:17.015Z,16.60
2023-01-19T03:18:46.674Z,17.13
2023-01-19T03:21:14.842Z,15.77
2023-01-19T03:23:43.431Z,15.40
2023-01-19T03:26:14.383Z,16.63
2023-01-19T03:28:42.782Z,14.73
2023-01-19T03:31:13.480Z,14.13
2023-01-19T03:33:43.050Z,13.77
2023-01-19T03:36:13.738Z,14.05
2023-01-19T03:38:41.952Z,13.85
2023-01-19T03:41:12.867Z,14.40
2023-01-19T03:43:42.375Z,15.13
2023-01-19T03:46:11.055Z,15.40
2023-01-19T03:48:39.498Z,14.23
2023-01-19T03:51:08.930Z,13.90
2023-01-19T03:53:36.992Z,14.77
2023-01-19T03:56:06.104Z,14.20
2023-01-19T03:58:34.260Z,13.77
2023-01-19T04:01:04.303Z,13.60
2023-01-19T04:03:32.573Z,14.52
2023-01-19T04:06:00.667Z,13.85
2023-01-19T04:08:28.885Z,14.13
2023-01-19T04:10:58.704Z,13.68
2023-01-19T04:13:27.212Z,14.02
2023-01-19T04:15:55.337Z,13.20
2023-01-19T04:18:24.911Z,13.95
2023-01-19T04:20:52.980Z,13.07
2023-01-19T04:23:21.153Z,13.90
2023-01-19T04:25:49.297Z,12.45
2023-01-19T04:28:17.673Z,12.45
2023-01-19T04:30:45.810Z,11.93
2023-01-19T04:33:13.971Z,13.02
2023-01-19T04:35:43.612Z,12.50
2023-01-19T04:38:11.712Z,12.43
2023-01-19T04:40:39.871Z,11.60
2023-01-19T04:43:08.030Z,12.65
2023-01-19T04:45:36.716Z,12.77
2023-01-19T04:48:05.831Z,12.70
2023-01-19T04:50:34.009Z,11.55
2023-01-19T04:53:03.563Z,11.70
2023-01-19T04:55:31.814Z,11.00
2023-01-19T04:57:59.963Z,11.75
2023-01-19T05:00:28.011Z,11.32
2023-01-19T05:02:56.214Z,11.10
2023-01-19T05:05:24.473Z,11.48
2023-01-19T05:07:52.625Z,10.35
2023-01-19T05:10:22.159Z,11.18
2023-01-19T05:12:50.296Z,11.18
2023-01-19T05:15:18.536Z,10.20
2023-01-19T05:17:46.757Z,10.73
2023-01-19T05:20:16.338Z,10.73
2023-01-19T05:22:44.674Z,11.55
2023-01-19T05:25:12.834Z,11.00
2023-01-19T05:27:42.311Z,11.25
2023-01-19T05:30:11.996Z,10.15
2023-01-19T05:32:40.097Z,10.55
2023-01-19T05:35:09.302Z,9.90
2023-01-19T05:37:37.490Z,9.90
2023-01-19T05:40:07.002Z,9.63
2023-01-19T05:42:35.049Z,10.20
2023-01-19T05:45:04.810Z,10.23
2023-01-19T05:47:32.941Z,9.75
2023-01-19T05:50:01.075Z,10.10
2023-01-19T05:52:29.122Z,9.85
2023-01-19T05:54:57.237Z,8.82
2023-01-19T05:57:25.302Z,9.38
2023-01-19T05:59:53.484Z,9.85
2023-01-19T06:02:28.703Z,8.60
2023-01-19T06:04:57.285Z,9.98
2023-01-19T06:07:27.531Z,9.77
2023-01-19T06:09:56.999Z,10.15
2023-01-19T06:12:25.137Z,8.98
2023-01-19T06:14:53.453Z,9.02
2023-01-19T06:17:23.018Z,8.90
2023-01-19T06:19:51.188Z,9.48
2023-01-19T06:22:19.290Z,8.50
2023-01-19T06:24:47.500Z,9.52
2023-01-19T06:27:15.670Z,8.88
2023-01-19T06:29:43.765Z,8.90
2023-01-19T06:32:11.857Z,8.45
2023-01-19T06:34:43.859Z,8.73
2023-01-19T06:37:12.295Z,8.32
2023-01-19T06:39:41.197Z,8.70
2023-01-19T06:42:09.328Z,8.25
2023-01-19T06:44:37.482Z,8.05
2023-01-19T06:47:14.647Z,8.65
2023-01-19T06:49:45.653Z,8.88
2023-01-19T06:52:15.990Z,8.25
2023-01-19T06:54:45.256Z,8.13
2023-01-19T06:57:14.007Z,8.40
2023-01-19T06:59:42.184Z,7.88
2023-01-19T07:02:26.511Z,8.80
2023-01-19T07:04:57.546Z,13.38
2023-01-19T07:07:25.992Z,14.52
2023-01-19T07:09:54.362Z,16.15
2023-01-19T07:12:22.523Z,15.68
2023-01-19T07:14:50.681Z,20.60
2023-01-19T07:17:18.806Z,21.30
2023-01-19T07:19:47.465Z,24.67
2023-01-19T07:22:16.945Z,25.83
2023-01-19T07:24:45.102Z,38.80
2023-01-19T07:27:13.255Z,48.65
2023-01-19T07:29:41.489Z,41.85
2023-01-19T07:32:09.637Z,51.58
2023-01-19T07:34:37.958Z,52.47
2023-01-19T07:37:06.077Z,46.22
2023-01-19T07:39:36.734Z,42.10
2023-01-19T07:42:05.124Z,39.05
2023-01-19T07:44:33.338Z,37.50
2023-01-19T07:47:01.492Z,42.22
2023-01-19T07:49:29.586Z,41.70
2023-01-19T07:51:58.111Z,40.08
2023-01-19T07:54:26.298Z,39.13
2023-01-19T07:56:56.415Z,38.70
2023-01-19T07:59:24.889Z,38.83
2023-01-19T08:01:54.352Z,39.80
2023-01-19T08:04:22.662Z,36.75
2023-01-19T08:06:50.875Z,36.00
2023-01-19T08:09:19.180Z,36.33
2023-01-19T08:11:47.233Z,35.13
2023-01-19T08:14:16.763Z,36.25
2023-01-19T08:16:44.854Z,34.83
2023-01-19T08:19:12.952Z,33.72
2023-01-19T08:21:41.192Z,33.47
2023-01-19T08:24:12.687Z,32.42
2023-01-19T08:26:40.918Z,31.52
2023-01-19T08:29:09.103Z,28.52
2023-01-19T08:31:39.652Z,31.52
2023-01-19T08:34:08.284Z,36.45
2023-01-19T08:36:36.539Z,35.33
2023-01-19T08:39:05.276Z,48.63
2023-01-19T08:41:33.577Z,53.53
2023-01-19T08:44:01.745Z,53.22
2023-01-19T08:46:29.818Z,52.92
2023-01-19T08:48:59.403Z,53.05
2023-01-19T08:51:27.549Z,58.70
2023-01-19T08:53:55.646Z,53.58
2023-01-19T08:56:23.768Z,54.45
2023-01-19T08:59:07.817Z,53.42
2023-01-19T09:01:38.185Z,54.85
2023-01-19T09:04:07.910Z,55.40
2023-01-19T09:06:36.072Z,57.05
2023-01-19T09:09:04.278Z,58.50
2023-01-19T09:11:33.229Z,58.05
2023-01-19T09:14:01.447Z,70.85
2023-01-19T09:16:29.797Z,66.20
2023-01-19T09:18:58.579Z,67.40
2023-01-19T09:21:28.942Z,72.78
2023-01-19T09:23:57.835Z,79.38
2023-01-19T09:26:26.311Z,69.90
2023-01-19T09:28:54.475Z,73.32
2023-01-19T09:31:22.687Z,72.30
2023-01-19T09:33:51.135Z,71.45
2023-01-19T09:36:19.299Z,67.30
2023-01-19T09:38:48.787Z,66.78
2023-01-19T09:41:20.536Z,73.03
2023-01-19T09:43:51.727Z,71.93
2023-01-19T09:46:21.732Z,69.07
2023-01-19T09:48:51.327Z,61.22
2023-01-19T09:51:21.121Z,70.05
2023-01-19T09:54:04.711Z,65.78
2023-01-19T09:56:32.976Z,66.20
2023-01-19T09:59:01.174Z,64.18
2023-01-19T10:01:38.479Z,59.80
2023-01-19T10:04:27.096Z,62.22
2023-01-19T10:06:58.630Z,57.67
2023-01-19T10:09:30.511Z,60.22
2023-01-19T10:11:59.909Z,58.10
2023-01-19T10:14:30.743Z,60.17
2023-01-19T10:17:02.183Z,58.50
2023-01-19T10:19:32.829Z,56.45
2023-01-19T10:22:03.850Z,54.33
2023-01-19T10:24:37.095Z,52.33
2023-01-19T10:27:05.283Z,54.97
2023-01-19T10:29:36.381Z,58.45
2023-01-19T10:32:06.356Z,56.72
2023-01-19T10:34:34.563Z,55.13
2023-01-19T10:37:05.566Z,56.33
2023-01-19T10:39:38.614Z,57.70
2023-01-19T10:42:07.095Z,53.78
2023-01-19T10:44:36.794Z,54.15
2023-01-19T10:47:05.379Z,57.65
2023-01-19T10:49:37.963Z,59.38
2023-01-19T10:52:07.167Z,58.08
2023-01-19T10:54:38.465Z,58.40
2023-01-19T10:57:09.317Z,59.85
2023-01-19T10:59:38.420Z,57.95
2023-01-19T11:02:20.390Z,57.47
2023-01-19T11:04:50.174Z,54.33
2023-01-19T11:07:21.100Z,57.28
2023-01-19T11:09:50.964Z,54.90
2023-01-19T11:12:20.245Z,46.10
2023-01-19T11:14:48.505Z,49.22
2023-01-19T11:17:21.507Z,46.42
2023-01-19T11:19:57.595Z,44.42
2023-01-19T11:22:27.874Z,44.85
2023-01-19T11:25:00.562Z,46.00
2023-01-19T11:27:28.708Z,40.75
2023-01-19T11:30:02.232Z,41.65
2023-01-19T11:32:30.371Z,44.38
2023-01-19T11:34:58.502Z,42.08
2023-01-19T11:37:31.269Z,42.92
2023-01-19T11:40:02.670Z,46.83
2023-01-19T11:42:32.024Z,45.25
2023-01-19T11:45:03.143Z,42.65
2023-01-19T11:47:33.638Z,45.58
2023-01-19T11:50:04.027Z,45.92
2023-01-19T11:52:35.197Z,49.38
2023-01-19T11:55:06.912Z,60.42
2023-01-19T11:57:35.174Z,56.22
2023-01-19T12:00:24.013Z,58.90
2023-01-19T12:02:52.421Z,60.67
2023-01-19T12:05:20.777Z,65.97
2023-01-19T12:07:49.141Z,65.82
2023-01-19T12:10:24.736Z,67.43
2023-01-19T12:12:52.994Z,61.90
2023-01-19T12:15:31.562Z,61.72
2023-01-19T12:18:01.271Z,62.85
2023-01-19T12:20:31.959Z,63.22
2023-01-19T12:23:07.795Z,63.10
2023-01-19T12:25:46.012Z,69.43
2023-01-19T12:28:15.203Z,72.88
2023-01-19T12:30:49.828Z,79.32
2023-01-19T12:33:25.315Z,69.90
2023-01-19T12:35:57.290Z,67.35
2023-01-19T12:38:55.415Z,65.18
2023-01-19T12:41:27.429Z,68.95
2023-01-19T12:44:21.259Z,64.88
2023-01-19T12:46:50.309Z,62.65
2023-01-19T12:49:32.801Z,66.13
2023-01-19T12:52:35.141Z,61.53
2023-01-19T12:55:07.518Z,60.97
2023-01-19T12:57:38.257Z,58.45
2023-01-19T13:00:08.308Z,58.00
2023-01-19T13:02:46.564Z,55.55
2023-01-19T13:05:16.911Z,57.92
2023-01-19T13:08:23.005Z,54.05
2023-01-19T13:10:55.703Z,52.83
2023-01-19T13:13:25.582Z,52.92
2023-01-19T13:15:55.872Z,53.55
2023-01-19T13:18:24.733Z,51.38
2023-01-19T13:20:54.354Z,50.75
2023-01-19T13:23:24.931Z,48.63
2023-01-19T13:26:04.112Z,49.88
2023-01-19T13:28:38.829Z,47.85
2023-01-19T13:31:07.233Z,48.88
2023-01-19T13:33:41.095Z,45.08
2023-01-19T13:36:18.203Z,46.92
2023-01-19T13:38:46.399Z,44.38
2023-01-19T13:41:16.227Z,45.47
2023-01-19T13:43:45.737Z,42.80
2023-01-19T13:46:13.945Z,43.55
2023-01-19T13:48:42.079Z,42.72
2023-01-19T13:51:18.440Z,44.30
2023-01-19T13:53:54.934Z,41.08
2023-01-19T13:56:23.879Z,41.72
2023-01-19T13:59:10.376Z,40.65
2023-01-19T14:01:40.040Z,39.22
2023-01-19T14:04:16.957Z,40.60
2023-01-19T14:06:48.240Z,38.28
2023-01-19T14:09:18.724Z,37.05
2023-01-19T14:11:47.688Z,38.78
2023-01-19T14:14:29.861Z,41.22
2023-01-19T14:16:57.947Z,35.33
2023-01-19T14:19:26.143Z,35.22
2023-01-19T14:22:01.859Z,35.78
2023-01-19T14:24:33.055Z,36.40
2023-01-19T14:27:14.331Z,33.08
2023-01-19T14:29:45.624Z,27.08
2023-01-19T14:32:15.758Z,30.05
2023-01-19T14:34:44.904Z,28.45
2023-01-19T14:37:24.519Z,30.63
2023-01-19T14:39:53.601Z,33.38
2023-01-19T14:42:27.199Z,29.35
2023-01-19T14:44:57.615Z,27.80
2023-01-19T14:47:34.060Z,30.77
2023-01-19T14:50:07.543Z,29.95
2023-01-19T14:52:37.762Z,28.75
2023-01-19T14:55:08.338Z,26.10
2023-01-19T14:57:37.249Z,28.98
2023-01-19T15:00:17.443Z,25.65
2023-01-19T15:02:45.964Z,26.98
2023-01-19T15:05:14.360Z,30.40
2023-01-19T15:07:43.710Z,33.17
2023-01-19T15:10:14.511Z,31.33
2023-01-19T15:12:42.766Z,31.50
2023-01-19T15:15:16.841Z,35.42
2023-01-19T15:17:44.969Z,37.35
2023-01-19T15:20:16.524Z,41.97
2023-01-19T15:22:45.060Z,40.13
2023-01-19T15:25:16.817Z,36.20
2023-01-19T15:27:45.224Z,37.13
2023-01-19T15:30:17.368Z,43.80
2023-01-19T15:32:45.477Z,41.83
2023-01-19T15:35:15.615Z,41.40
2023-01-19T15:37:43.686Z,42.40
2023-01-19T15:40:12.634Z,39.70
2023-01-19T15:42:41.042Z,36.45
2023-01-19T15:45:37.756Z,40.35
2023-01-19T15:48:07.153Z,45.25
2023-01-19T15:50:35.672Z,39.72
2023-01-19T15:53:19.715Z,43.55
2023-01-19T15:55:50.526Z,48.28
2023-01-19T15:58:20.605Z,47.25
2023-01-19T16:00:55.736Z,44.78
2023-01-19T16:03:24.167Z,46.35
2023-01-19T16:05:52.253Z,43.00
2023-01-19T16:08:22.111Z,43.13
2023-01-19T16:10:50.321Z,43.13
2023-01-19T16:13:18.394Z,40.95
2023-01-19T16:15:46.587Z,39.80
2023-01-19T16:18:16.046Z,40.13
2023-01-19T16:20:44.188Z,41.05
2023-01-19T16:23:15.862Z,40.88
2023-01-19T16:25:44.341Z,40.92
2023-01-19T16:28:12.505Z,41.13
2023-01-19T16:30:40.807Z,38.92
2023-01-19T16:33:11.673Z,38.90
2023-01-19T16:35:41.303Z,39.60
2023-01-19T16:38:09.808Z,38.92
2023-01-19T16:40:38.185Z,35.65
2023-01-19T16:43:06.314Z,36.33
2023-01-19T16:45:34.452Z,32.53
2023-01-19T16:48:02.725Z,32.88
2023-01-19T16:50:30.811Z,33.78
2023-01-19T16:53:00.385Z,34.22
2023-01-19T16:55:28.448Z,33.92
2023-01-19T16:57:56.909Z,35.95
2023-01-19T17:00:25.441Z,36.22
2023-01-19T17:02:53.805Z,38.03
2023-01-19T17:05:22.409Z,39.10
2023-01-19T17:07:50.566Z,42.80
2023-01-19T17:10:20.264Z,40.83
2023-01-19T17:12:48.400Z,46.53
2023-01-19T17:15:16.802Z,41.13
2023-01-19T17:17:45.034Z,43.70
2023-01-19T17:20:14.056Z,41.72
2023-01-19T17:22:42.422Z,40.08
2023-01-19T17:25:10.650Z,44.75
2023-01-19T17:27:40.228Z,52.03
2023-01-19T17:30:09.563Z,61.30
2023-01-19T17:32:37.947Z,62.22
2023-01-19T17:35:06.681Z,58.10
2023-01-19T17:37:34.836Z,55.63
2023-01-19T17:40:02.991Z,62.75
2023-01-19T17:42:31.136Z,58.30
2023-01-19T17:45:00.657Z,53.85
2023-01-19T17:47:28.748Z,58.05
2023-01-19T17:49:56.909Z,56.20
2023-01-19T17:52:25.029Z,59.53
2023-01-19T17:54:53.151Z,57.55
2023-01-19T17:57:21.375Z,57.08
2023-01-19T17:59:49.531Z,59.88
2023-01-19T18:02:19.178Z,62.50
2023-01-19T18:04:47.321Z,60.72
2023-01-19T18:07:15.364Z,62.42
2023-01-19T18:09:43.512Z,66.80
2023-01-19T18:12:11.591Z,68.60
2023-01-19T18:14:40.379Z,65.15
2023-01-19T18:17:08.621Z,71.43
2023-01-19T18:19:38.101Z,76.57
2023-01-19T18:22:06.287Z,76.78
2023-01-19T18:24:34.465Z,114.03
2023-01-19T18:27:02.758Z,94.72
2023-01-19T18:29:31.027Z,91.80
2023-01-19T18:31:59.224Z,95.68
2023-01-19T18:34:27.356Z,91.90
2023-01-19T18:36:56.898Z,97.38
2023-01-19T18:39:25.003Z,82.88
2023-01-19T18:41:53.200Z,89.35
2023-01-19T18:44:22.232Z,93.43
2023-01-19T18:46:50.399Z,84.85
2023-01-19T18:49:18.498Z,87.80
2023-01-19T18:51:46.642Z,85.53
2023-01-19T18:54:17.490Z,84.65
2023-01-19T18:56:45.739Z,95.57
2023-01-19T18:59:13.815Z,96.15
2023-01-19T19:01:42.017Z,95.10
2023-01-19T19:04:10.147Z,101.03
2023-01-19T19:06:38.280Z,92.88
2023-01-19T19:09:06.610Z,94.72
2023-01-19T19:11:36.540Z,92.43
2023-01-19T19:14:04.807Z,96.00
2023-01-19T19:16:36.197Z,93.72
2023-01-19T19:19:05.103Z,88.13
2023-01-19T19:21:33.196Z,91.63
2023-01-19T19:24:01.349Z,89.68
2023-01-19T19:26:29.416Z,83.50
2023-01-19T19:28:58.942Z,81.47
2023-01-19T19:31:27.716Z,94.28
2023-01-19T19:33:56.352Z,91.75
2023-01-19T19:36:24.492Z,92.38
2023-01-19T19:38:52.546Z,95.97
2023-01-19T19:41:21.930Z,90.07
2023-01-19T19:43:50.027Z,77.63
2023-01-19T19:46:21.030Z,82.30
2023-01-19T19:48:49.504Z,79.20
2023-01-19T19:51:19.437Z,80.65
2023-01-19T19:53:50.935Z,76.07
2023-01-19T19:56:21.206Z,79.43
2023-01-19T19:58:49.560Z,75.28
2023-01-19T20:01:20.388Z,76.40
2023-01-19T20:03:48.726Z,72.32
2023-01-19T20:06:17.977Z,75.18
2023-01-19T20:08:46.120Z,71.90
2023-01-19T20:11:15.058Z,76.03
2023-01-19T20:13:43.728Z,66.97
2023-01-19T20:16:13.944Z,65.88
2023-01-19T20:18:44.018Z,68.65
2023-01-19T20:21:12.959Z,69.47
2023-01-19T20:23:41.234Z,67.03
2023-01-19T20:26:09.731Z,65.07
2023-01-19T20:28:38.090Z,63.00
2023-01-19T20:31:10.691Z,65.93
2023-01-19T20:33:38.881Z,62.45
2023-01-19T20:36:08.870Z,65.07
2023-01-19T20:38:37.082Z,69.28
2023-01-19T20:41:05.233Z,60.15
2023-01-19T20:43:33.433Z,60.50
2023-01-19T20:46:01.631Z,62.78
2023-01-19T20:48:30.259Z,64.63
2023-01-19T20:51:01.787Z,55.72
2023-01-19T20:53:31.327Z,56.83
2023-01-19T20:55:59.561Z,59.13
2023-01-19T20:58:27.639Z,56.90
2023-01-19T21:00:55.822Z,52.70
2023-01-19T21:03:23.918Z,52.17
2023-01-19T21:05:52.054Z,54.53
2023-01-19T21:08:20.158Z,52.70
2023-01-19T21:10:49.682Z,55.47
2023-01-19T21:13:17.732Z,52.50
2023-01-19T21:15:45.930Z,54.03
2023-01-19T21:18:14.007Z,54.10
2023-01-19T21:20:42.242Z,49.70
2023-01-19T21:23:10.400Z,50.85
2023-01-19T21:25:38.680Z,49.45
2023-01-19T21:28:08.542Z,50.08
2023-01-19T21:30:37.534Z,47.83
2023-01-19T21:33:07.187Z,49.63
2023-01-19T21:35:35.260Z,44.88
2023-01-19T21:38:03.367Z,46.70
2023-01-19T21:40:31.470Z,45.55
2023-01-19T21:42:59.668Z,45.08
2023-01-19T21:45:29.231Z,50.53
2023-01-19T21:47:57.455Z,47.63
2023-01-19T21:50:25.516Z,45.88
2023-01-19T21:52:53.681Z,43.20
2023-01-19T21:55:21.851Z,43.42
2023-01-19T21:57:49.997Z,45.15
2023-01-19T22:00:19.141Z,43.40
2023-01-19T22:03:02.790Z,41.47
2023-01-19T22:05:31.800Z,42.30
2023-01-19T22:07:59.860Z,42.53
2023-01-19T22:10:28.003Z,43.55
2023-01-19T22:12:56.022Z,40.08
2023-01-19T22:15:24.182Z,41.20
2023-01-19T22:17:53.659Z,41.92
2023-01-19T22:20:21.831Z,38.88
2023-01-19T22:22:49.914Z,41.40
2023-01-19T22:25:22.032Z,39.08
2023-01-19T22:27:50.195Z,39.78
2023-01-19T22:30:19.401Z,37.90
2023-01-19T22:32:47.585Z,38.88
2023-01-19T22:35:17.325Z,37.78
2023-01-19T22:37:45.511Z,36.08
2023-01-19T22:40:14.175Z,37.40
2023-01-19T22:42:45.592Z,35.55
2023-01-19T22:45:13.986Z,35.50
2023-01-19T22:47:42.168Z,34.72
2023-01-19T22:50:11.254Z,34.90
2023-01-19T22:52:40.752Z,34.22
2023-01-19T22:55:09.546Z,34.83
2023-01-19T22:57:38.380Z,36.10
2023-01-19T23:00:08.696Z,36.17
2023-01-19T23:02:36.935Z,35.25
2023-01-19T23:05:05.527Z,33.40
2023-01-19T23:07:33.675Z,33.47
2023-01-19T23:10:03.146Z,32.75
2023-01-19T23:12:31.360Z,31.67
2023-01-19T23:14:59.698Z,32.13
2023-01-19T23:17:27.872Z,33.08
2023-01-19T23:19:56.128Z,32.45
2023-01-19T23:22:24.268Z,28.80
2023-01-19T23:24:52.451Z,30.98
2023-01-19T23:27:21.967Z,29.13
2023-01-19T23:29:50.044Z,29.70
2023-01-19T23:32:18.186Z,28.95
2023-01-19T23:34:46.267Z,28.77
2023-01-19T23:37:14.429Z,31.25
2023-01-19T23:39:42.699Z,27.52
2023-01-19T23:42:10.948Z,27.35
2023-01-19T23:44:40.382Z,27.10
2023-01-19T23:47:08.596Z,26.58
2023-01-19T23:49:36.665Z,26.55
2023-01-19T23:52:05.802Z,27.08
2023-01-19T23:54:34.012Z,26.50
2023-01-19T23:57:02.131Z,27.63
2023-01-19T23:59:30.276Z,25.45
